createdAt,value
2019-02-02T00:02:15.590Z,1.16
2019-02-02T00:05:20.789Z,1.15
2019-02-02T00:08:26.028Z,1.17
2019-02-02T00:11:31.244Z,1.15
2019-02-02T00:14:36.360Z,1.13
2019-02-02T00:17:41.570Z,1.17
2019-02-02T00:20:46.679Z,1.21
2019-02-02T00:23:51.840Z,1.22
2019-02-02T00:26:57.031Z,1.22
2019-02-02T00:30:02.122Z,1.21
2019-02-02T00:33:08.408Z,1.14
2019-02-02T00:36:13.498Z,1.21
2019-02-02T00:39:18.674Z,1.34
2019-02-02T00:42:23.849Z,1.22
2019-02-02T00:45:29.008Z,1.43
2019-02-02T00:48:34.205Z,1.29
2019-02-02T00:51:39.369Z,1.20
2019-02-02T00:54:44.564Z,1.21
2019-02-02T00:57:53.935Z,1.19
2019-02-02T01:00:56.633Z,1.12
2019-02-02T01:04:01.837Z,1.17
2019-02-02T01:07:07.098Z,1.12
2019-02-02T01:10:16.557Z,1.13
2019-02-02T01:13:21.682Z,1.06
2019-02-02T01:16:26.797Z,1.11
2019-02-02T01:19:32.049Z,1.14
2019-02-02T01:22:37.304Z,1.15
2019-02-02T01:25:42.456Z,1.19
2019-02-02T01:28:47.592Z,1.14
2019-02-02T01:31:52.765Z,1.16
2019-02-02T01:34:57.948Z,1.19
2019-02-02T01:38:03.172Z,1.36
2019-02-02T01:41:08.306Z,1.30
2019-02-02T01:44:13.583Z,1.21
2019-02-02T01:47:18.661Z,1.15
2019-02-02T01:50:24.952Z,1.11
2019-02-02T01:53:30.097Z,1.21
2019-02-02T01:56:35.309Z,1.29
2019-02-02T01:59:40.519Z,1.32
2019-02-02T02:02:45.620Z,1.20
2019-02-02T02:05:50.773Z,1.15
2019-02-02T02:08:55.936Z,1.28
2019-02-02T02:12:01.059Z,1.21
2019-02-02T02:15:08.025Z,1.15
2019-02-02T02:18:13.183Z,1.17
2019-02-02T02:21:18.414Z,1.20
2019-02-02T02:24:23.611Z,1.12
2019-02-02T02:27:28.718Z,1.11
2019-02-02T02:30:33.802Z,1.12
2019-02-02T02:33:39.030Z,1.07
2019-02-02T02:36:44.218Z,1.11
2019-02-02T02:39:49.398Z,1.11
2019-02-02T02:42:54.788Z,1.09
2019-02-02T02:45:59.885Z,1.15
2019-02-02T02:49:04.993Z,1.18
2019-02-02T02:52:10.286Z,1.17
2019-02-02T02:55:15.936Z,1.23
2019-02-02T02:58:22.758Z,1.11
2019-02-02T03:01:27.917Z,1.19
2019-02-02T03:04:33.097Z,1.30
2019-02-02T03:07:39.283Z,1.17
2019-02-02T03:10:44.440Z,1.14
2019-02-02T03:13:52.435Z,1.10
2019-02-02T03:16:57.539Z,1.15
2019-02-02T03:20:02.731Z,1.12
2019-02-02T03:23:07.847Z,1.14
2019-02-02T03:26:13.006Z,1.19
2019-02-02T03:29:18.219Z,1.21
2019-02-02T03:32:23.319Z,1.21
2019-02-02T03:35:28.473Z,1.20
2019-02-02T03:38:33.608Z,1.20
2019-02-02T03:41:38.986Z,1.19
2019-02-02T03:44:44.158Z,1.23
2019-02-02T03:47:51.315Z,1.19
2019-02-02T03:50:56.405Z,1.19
2019-02-02T03:54:08.879Z,1.16
2019-02-02T03:57:08.509Z,1.20
2019-02-02T04:00:15.941Z,1.14
2019-02-02T04:03:21.148Z,1.11
2019-02-02T04:06:26.240Z,1.20
2019-02-02T04:09:31.508Z,1.31
2019-02-02T04:12:36.600Z,1.23
2019-02-02T04:15:41.745Z,1.15
2019-02-02T04:18:46.902Z,1.20
2019-02-02T04:21:52.133Z,1.24
2019-02-02T04:24:57.231Z,1.23
2019-02-02T04:28:02.359Z,1.23
2019-02-02T04:31:07.531Z,1.24
2019-02-02T04:34:12.688Z,1.30
2019-02-02T04:37:17.805Z,1.49
2019-02-02T04:40:23.004Z,1.69
2019-02-02T04:43:28.170Z,1.65
2019-02-02T04:46:33.272Z,1.42
2019-02-02T04:49:38.454Z,1.29
2019-02-02T04:52:43.567Z,1.28
2019-02-02T04:55:48.719Z,1.26
2019-02-02T04:58:53.842Z,1.25
2019-02-02T05:01:58.947Z,1.23
2019-02-02T05:05:05.136Z,1.13
2019-02-02T05:08:10.240Z,1.14
2019-02-02T05:11:15.422Z,1.09
2019-02-02T05:14:20.551Z,1.21
2019-02-02T05:17:25.633Z,1.37
2019-02-02T05:20:30.781Z,1.30
2019-02-02T05:23:35.956Z,1.20
2019-02-02T05:26:41.166Z,1.10
2019-02-02T05:29:46.222Z,1.16
2019-02-02T05:32:51.370Z,1.19
2019-02-02T05:35:56.488Z,1.13
2019-02-02T05:39:01.713Z,1.23
2019-02-02T05:42:08.561Z,1.34
2019-02-02T05:45:16.290Z,1.28
2019-02-02T05:48:21.534Z,1.20
2019-02-02T05:51:26.736Z,1.23
2019-02-02T05:54:31.911Z,1.21
2019-02-02T05:57:37.072Z,1.19
2019-02-02T06:01:00.867Z,1.21
2019-02-02T06:04:06.072Z,1.32
2019-02-02T06:07:11.226Z,1.45
2019-02-02T06:10:16.999Z,1.40
2019-02-02T06:13:22.208Z,1.39
2019-02-02T06:16:27.383Z,1.35
2019-02-02T06:19:32.511Z,1.29
2019-02-02T06:22:37.698Z,1.36
2019-02-02T06:25:42.782Z,1.33
2019-02-02T06:28:47.967Z,1.36
2019-02-02T06:31:53.138Z,1.33
2019-02-02T06:34:58.243Z,1.29
2019-02-02T06:38:03.364Z,1.26
2019-02-02T06:41:08.482Z,1.40
2019-02-02T06:44:13.727Z,1.35
2019-02-02T06:47:20.555Z,1.38
2019-02-02T06:50:25.883Z,1.30
2019-02-02T06:53:31.067Z,1.32
2019-02-02T06:56:36.216Z,1.30
2019-02-02T06:59:41.369Z,1.40
2019-02-02T07:02:46.627Z,1.41
2019-02-02T07:05:51.802Z,1.40
2019-02-02T07:08:59.948Z,1.44
2019-02-02T07:12:05.106Z,1.35
2019-02-02T07:15:12.000Z,1.33
2019-02-02T07:18:17.132Z,1.30
2019-02-02T07:21:22.250Z,1.24
2019-02-02T07:24:27.390Z,1.30
2019-02-02T07:27:32.542Z,1.47
2019-02-02T07:30:37.668Z,1.57
2019-02-02T07:33:42.848Z,1.56
2019-02-02T07:36:47.957Z,1.44
2019-02-02T07:39:53.165Z,1.39
2019-02-02T07:42:58.277Z,1.44
2019-02-02T07:46:13.869Z,1.57
2019-02-02T07:49:10.287Z,1.56
2019-02-02T07:52:15.473Z,1.53
2019-02-02T07:55:20.812Z,1.57
2019-02-02T07:58:25.914Z,1.62
2019-02-02T08:01:31.103Z,1.69
2019-02-02T08:04:36.278Z,1.69
2019-02-02T08:07:41.444Z,1.61
2019-02-02T08:10:46.590Z,1.63
2019-02-02T08:13:51.720Z,1.69
2019-02-02T08:16:56.919Z,1.87
2019-02-02T08:20:02.054Z,1.72
2019-02-02T08:23:07.202Z,1.71
2019-02-02T08:26:12.433Z,1.71
2019-02-02T08:29:17.550Z,1.68
2019-02-02T08:32:22.671Z,1.71
2019-02-02T08:35:27.876Z,1.73
2019-02-02T08:38:32.976Z,1.74
2019-02-02T08:41:38.111Z,1.82
2019-02-02T08:44:43.225Z,1.96
2019-02-02T08:47:48.376Z,2.16
2019-02-02T08:50:53.594Z,2.03
2019-02-02T08:53:58.744Z,1.86
2019-02-02T08:57:03.869Z,1.87
2019-02-02T09:00:12.771Z,1.86
2019-02-02T09:03:17.877Z,1.97
2019-02-02T09:06:23.101Z,1.93
2019-02-02T09:09:28.241Z,1.91
2019-02-02T09:12:33.516Z,1.91
2019-02-02T09:15:38.621Z,2.00
2019-02-02T09:18:43.790Z,1.99
2019-02-02T09:21:48.914Z,2.02
2019-02-02T09:24:54.020Z,2.14
2019-02-02T09:27:59.135Z,2.11
2019-02-02T09:31:15.563Z,1.98
2019-02-02T09:34:11.981Z,2.06
2019-02-02T09:37:17.108Z,2.19
2019-02-02T09:40:25.478Z,2.14
2019-02-02T09:43:29.424Z,2.17
2019-02-02T09:46:34.558Z,2.30
2019-02-02T09:49:39.765Z,2.39
2019-02-02T09:52:44.929Z,2.84
2019-02-02T09:55:50.184Z,2.62
2019-02-02T09:58:55.323Z,2.75
2019-02-02T10:02:00.491Z,2.65
2019-02-02T10:05:06.408Z,2.53
2019-02-02T10:08:11.563Z,2.59
2019-02-02T10:11:16.824Z,2.54
2019-02-02T10:14:21.931Z,2.65
2019-02-02T10:17:27.059Z,2.78
2019-02-02T10:20:32.302Z,2.89
2019-02-02T10:23:37.507Z,2.97
2019-02-02T10:26:42.618Z,2.88
2019-02-02T10:29:47.808Z,2.96
2019-02-02T10:32:52.984Z,2.95
2019-02-02T10:35:58.173Z,2.82
2019-02-02T10:39:04.616Z,3.00
2019-02-02T10:42:10.861Z,3.28
2019-02-02T10:45:16.107Z,3.36
2019-02-02T10:48:22.458Z,3.26
2019-02-02T10:51:27.623Z,3.30
2019-02-02T10:54:32.897Z,3.07
2019-02-02T10:57:38.133Z,2.82
2019-02-02T11:00:43.262Z,2.96
2019-02-02T11:03:48.399Z,2.97
2019-02-02T11:06:53.525Z,3.24
2019-02-02T11:09:58.731Z,3.15
2019-02-02T11:13:03.988Z,3.37
2019-02-02T11:16:09.266Z,3.63
2019-02-02T11:19:14.599Z,3.63
2019-02-02T11:22:19.757Z,3.68
2019-02-02T11:25:25.128Z,3.71
2019-02-02T11:28:30.428Z,3.73
2019-02-02T11:31:35.512Z,3.87
2019-02-02T11:34:40.765Z,3.78
2019-02-02T11:37:46.923Z,3.86
2019-02-02T11:40:52.083Z,3.86
2019-02-02T11:43:57.251Z,3.90
2019-02-02T11:47:02.430Z,3.90
2019-02-02T11:50:08.878Z,3.97
2019-02-02T11:53:14.044Z,3.98
2019-02-02T11:56:19.205Z,4.22
2019-02-02T11:59:24.346Z,4.40
2019-02-02T12:02:29.476Z,5.07
2019-02-02T12:05:34.687Z,4.84
2019-02-02T12:08:40.906Z,4.76
2019-02-02T12:11:46.121Z,4.63
2019-02-02T12:14:51.391Z,4.35
2019-02-02T12:17:56.735Z,4.25
2019-02-02T12:21:01.918Z,4.13
2019-02-02T12:24:14.382Z,4.09
2019-02-02T12:27:13.996Z,4.15
2019-02-02T12:30:27.193Z,4.25
2019-02-02T12:33:32.422Z,4.13
2019-02-02T12:36:37.570Z,4.21
2019-02-02T12:39:42.735Z,4.17
2019-02-02T12:42:47.920Z,4.26
2019-02-02T12:45:54.245Z,4.19
2019-02-02T12:48:59.325Z,4.34
2019-02-02T12:52:04.565Z,4.42
2019-02-02T12:55:10.234Z,4.33
2019-02-02T12:58:15.478Z,4.61
2019-02-02T13:01:20.632Z,4.76
2019-02-02T13:04:25.826Z,5.32
2019-02-02T13:07:31.000Z,6.15
2019-02-02T13:10:36.210Z,6.06
2019-02-02T13:13:42.684Z,6.14
2019-02-02T13:16:50.045Z,5.75
2019-02-02T13:19:54.826Z,6.24
2019-02-02T13:22:59.997Z,6.14
2019-02-02T13:26:05.936Z,5.60
2019-02-02T13:29:11.262Z,5.28
2019-02-02T13:32:16.419Z,4.86
2019-02-02T13:35:21.895Z,4.81
2019-02-02T13:38:27.091Z,4.75
2019-02-02T13:41:32.258Z,4.67
2019-02-02T13:44:37.522Z,4.86
2019-02-02T13:47:42.674Z,4.99
2019-02-02T13:50:47.848Z,5.18
2019-02-02T13:53:53.129Z,5.23
2019-02-02T13:56:58.274Z,5.25
2019-02-02T14:00:03.525Z,5.03
2019-02-02T14:03:10.259Z,5.27
2019-02-02T14:06:15.398Z,5.42
2019-02-02T14:09:20.520Z,5.04
2019-02-02T14:12:25.679Z,4.71
2019-02-02T14:15:30.924Z,4.69
2019-02-02T14:18:36.124Z,4.41
2019-02-02T14:21:41.361Z,4.35
2019-02-02T14:24:46.497Z,4.30
2019-02-02T14:27:51.622Z,4.37
2019-02-02T14:30:56.779Z,4.36
2019-02-02T14:34:01.902Z,4.32
2019-02-02T14:37:07.054Z,4.30
2019-02-02T14:40:13.200Z,4.22
2019-02-02T14:43:18.322Z,4.19
2019-02-02T14:46:23.459Z,4.29
2019-02-02T14:49:28.643Z,4.25
2019-02-02T14:52:33.795Z,4.14
2019-02-02T14:55:38.967Z,4.17
2019-02-02T14:58:44.152Z,4.34
2019-02-02T15:01:49.293Z,4.33
2019-02-02T15:04:54.406Z,4.25
2019-02-02T15:07:59.522Z,4.14
2019-02-02T15:11:04.686Z,4.10
2019-02-02T15:14:09.812Z,4.18
2019-02-02T15:17:14.987Z,4.19
2019-02-02T15:20:25.878Z,4.21
2019-02-02T15:23:31.020Z,4.17
2019-02-02T15:26:36.153Z,4.03
2019-02-02T15:29:41.283Z,3.94
2019-02-02T15:32:46.480Z,3.97
2019-02-02T15:35:51.606Z,3.95
2019-02-02T15:38:56.800Z,4.02
2019-02-02T15:42:01.897Z,4.12
2019-02-02T15:45:08.348Z,3.95
2019-02-02T15:48:13.470Z,3.94
2019-02-02T15:51:18.642Z,3.76
2019-02-02T15:54:23.822Z,3.76
2019-02-02T15:57:28.949Z,3.84
2019-02-02T16:00:35.991Z,3.88
2019-02-02T16:03:49.361Z,3.77
2019-02-02T16:06:48.017Z,3.67
2019-02-02T16:09:53.158Z,3.77
2019-02-02T16:12:58.257Z,3.73
2019-02-02T16:16:03.416Z,3.70
2019-02-02T16:19:08.631Z,3.64
2019-02-02T16:22:13.754Z,3.54
2019-02-02T16:25:18.883Z,3.52
2019-02-02T16:28:24.026Z,3.55
2019-02-02T16:31:29.295Z,3.55
2019-02-02T16:34:34.540Z,3.50
2019-02-02T16:37:39.714Z,3.52
2019-02-02T16:40:44.911Z,3.50
2019-02-02T16:43:50.088Z,3.47
2019-02-02T16:46:55.219Z,3.46
2019-02-02T16:50:00.354Z,3.41
2019-02-02T16:53:05.794Z,3.36
2019-02-02T16:56:10.943Z,3.30
2019-02-02T16:59:16.254Z,3.27
2019-02-02T17:02:21.379Z,3.15
2019-02-02T17:05:26.643Z,3.17
2019-02-02T17:08:31.862Z,3.15
2019-02-02T17:11:37.005Z,3.09
2019-02-02T17:14:42.294Z,3.09
2019-02-02T17:17:47.449Z,3.11
2019-02-02T17:20:52.563Z,3.10
2019-02-02T17:24:00.028Z,3.03
2019-02-02T17:27:05.490Z,3.04
2019-02-02T17:30:13.535Z,2.95
2019-02-02T17:33:18.814Z,3.09
2019-02-02T17:36:23.961Z,3.11
2019-02-02T17:39:29.136Z,2.97
2019-02-02T17:42:34.307Z,3.13
2019-02-02T17:45:39.520Z,3.02
2019-02-02T17:48:44.857Z,2.87
2019-02-02T17:51:50.091Z,2.93
2019-02-02T17:54:55.241Z,2.81
2019-02-02T17:58:00.431Z,2.85
2019-02-02T18:01:05.710Z,3.03
2019-02-02T18:04:10.938Z,2.87
2019-02-02T18:07:16.093Z,2.91
2019-02-02T18:10:21.261Z,2.83
2019-02-02T18:13:26.396Z,2.84
2019-02-02T18:16:31.687Z,2.87
2019-02-02T18:19:36.829Z,2.98
2019-02-02T18:22:42.278Z,2.95
2019-02-02T18:25:47.420Z,3.03
2019-02-02T18:28:54.044Z,3.08
2019-02-02T18:31:59.284Z,2.97
2019-02-02T18:35:05.074Z,2.97
2019-02-02T18:38:10.271Z,2.81
2019-02-02T18:41:15.482Z,2.57
2019-02-02T18:44:20.628Z,2.35
2019-02-02T18:47:25.845Z,2.04
2019-02-02T18:50:31.084Z,1.84
2019-02-02T18:53:36.423Z,1.74
2019-02-02T18:56:41.577Z,1.57
2019-02-02T18:59:46.749Z,1.57
2019-02-02T19:02:51.883Z,1.46
2019-02-02T19:05:57.060Z,1.35
2019-02-02T19:09:02.360Z,1.39
2019-02-02T19:12:09.130Z,1.33
2019-02-02T19:15:14.530Z,1.41
2019-02-02T19:18:22.799Z,1.57
2019-02-02T19:21:28.079Z,1.76
2019-02-02T19:24:33.229Z,1.85
2019-02-02T19:27:38.445Z,2.03
2019-02-02T19:30:43.692Z,2.08
2019-02-02T19:33:48.895Z,2.12
2019-02-02T19:36:54.111Z,2.23
2019-02-02T19:39:59.281Z,2.30
2019-02-02T19:43:04.657Z,2.30
2019-02-02T19:46:09.962Z,2.32
2019-02-02T19:49:15.154Z,2.43
2019-02-02T19:52:20.305Z,2.38
2019-02-02T19:55:25.455Z,2.41
2019-02-02T19:58:30.668Z,2.40
2019-02-02T20:01:35.826Z,2.60
2019-02-02T20:04:41.166Z,2.56
2019-02-02T20:07:46.369Z,2.43
2019-02-02T20:10:51.509Z,2.57
2019-02-02T20:13:56.745Z,2.52
2019-02-02T20:17:01.976Z,2.48
2019-02-02T20:20:09.667Z,2.50
2019-02-02T20:23:14.889Z,2.55
2019-02-02T20:26:20.168Z,2.55
2019-02-02T20:29:25.385Z,2.55
2019-02-02T20:32:30.514Z,2.55
2019-02-02T20:35:41.978Z,2.52
2019-02-02T20:38:42.649Z,2.65
2019-02-02T20:41:47.840Z,2.50
2019-02-02T20:44:52.976Z,2.52
2019-02-02T20:47:58.134Z,2.45
2019-02-02T20:51:04.326Z,2.46
2019-02-02T20:54:09.571Z,2.55
2019-02-02T20:57:14.703Z,2.65
2019-02-02T21:00:22.055Z,2.57
2019-02-02T21:03:27.345Z,2.62
2019-02-02T21:06:32.500Z,2.70
2019-02-02T21:09:37.773Z,2.60
2019-02-02T21:12:42.938Z,2.58
2019-02-02T21:15:48.149Z,2.64
2019-02-02T21:18:53.762Z,2.58
2019-02-02T21:21:58.994Z,2.60
2019-02-02T21:25:04.385Z,2.65
2019-02-02T21:28:15.190Z,2.56
2019-02-02T21:31:20.553Z,2.57
2019-02-02T21:34:25.730Z,2.61
2019-02-02T21:37:30.863Z,2.61
2019-02-02T21:40:36.504Z,2.59
2019-02-02T21:43:41.947Z,2.62
2019-02-02T21:46:47.081Z,2.69
2019-02-02T21:49:53.335Z,2.66
2019-02-02T21:52:58.516Z,2.66
2019-02-02T21:56:03.755Z,2.63
2019-02-02T21:59:08.873Z,2.64
2019-02-02T22:02:14.075Z,2.69
2019-02-02T22:05:19.234Z,2.75
2019-02-02T22:08:24.503Z,2.52
2019-02-02T22:11:29.695Z,2.57
2019-02-02T22:14:34.857Z,2.61
2019-02-02T22:17:40.082Z,2.63
2019-02-02T22:20:45.282Z,2.61
2019-02-02T22:23:50.631Z,2.70
2019-02-02T22:26:55.843Z,2.75
2019-02-02T22:30:01.033Z,2.77
2019-02-02T22:33:08.013Z,2.72
2019-02-02T22:36:13.191Z,2.70
2019-02-02T22:39:18.465Z,2.74
2019-02-02T22:42:23.629Z,2.71
2019-02-02T22:45:28.748Z,2.62
2019-02-02T22:48:33.932Z,2.68
2019-02-02T22:51:39.028Z,2.55
2019-02-02T22:54:44.233Z,2.42
2019-02-02T22:57:49.374Z,2.54
2019-02-02T23:01:12.279Z,2.60
2019-02-02T23:05:04.311Z,2.53
2019-02-02T23:08:27.201Z,2.57
2019-02-02T23:11:46.343Z,2.56
2019-02-02T23:15:21.759Z,2.62
2019-02-02T23:18:26.994Z,2.59
2019-02-02T23:21:32.526Z,2.55
2019-02-02T23:24:37.674Z,2.54
2019-02-02T23:27:42.874Z,2.55
2019-02-02T23:30:47.968Z,2.55
2019-02-02T23:33:53.110Z,2.51
2019-02-02T23:36:58.303Z,2.47
2019-02-02T23:40:03.546Z,2.51
2019-02-02T23:43:08.814Z,2.49
2019-02-02T23:46:13.949Z,2.50
2019-02-02T23:49:19.073Z,2.51
2019-02-02T23:52:24.281Z,2.43
2019-02-02T23:55:29.471Z,2.46
2019-02-02T23:58:34.579Z,2.42
